sensor_id;sensor_type;location;lat;lon;timestamp;temperature;humidity
5919;DHT22;2985;48.142;16.344;2022-08-30T00:04:39;19.00;99.90
5919;DHT22;2985;48.142;16.344;2022-08-30T00:09:48;19.00;99.90
5919;DHT22;2985;48.142;16.344;2022-08-30T00:14:57;19.00;99.90
5919;DHT22;2985;48.142;16.344;2022-08-30T00:20:09;18.70;99.90
5919;DHT22;2985;48.142;16.344;2022-08-30T00:25:19;18.80;99.90
5919;DHT22;2985;48.142;16.344;2022-08-30T00:30:29;18.90;99.90
5919;DHT22;2985;48.142;16.344;2022-08-30T00:35:39;18.70;99.90
5919;DHT22;2985;48.142;16.344;2022-08-30T00:40:50;18.50;99.90
5919;DHT22;2985;48.142;16.344;2022-08-30T00:46:02;18.60;99.90
5919;DHT22;2985;48.142;16.344;2022-08-30T00:51:13;18.70;99.90
5919;DHT22;2985;48.142;16.344;2022-08-30T00:56:24;18.70;99.90
5919;DHT22;2985;48.142;16.344;2022-08-30T01:01:34;18.70;99.90
5919;DHT22;2985;48.142;16.344;2022-08-30T01:06:45;18.60;99.90
5919;DHT22;2985;48.142;16.344;2022-08-30T01:11:55;18.50;99.90
5919;DHT22;2985;48.142;16.344;2022-08-30T01:17:04;18.50;99.90
5919;DHT22;2985;48.142;16.344;2022-08-30T01:27:28;18.40;99.90
5919;DHT22;2985;48.142;16.344;2022-08-30T01:32:43;18.30;99.90
5919;DHT22;2985;48.142;16.344;2022-08-30T01:37:53;18.30;99.90
5919;DHT22;2985;48.142;16.344;2022-08-30T01:43:02;18.30;99.90
5919;DHT22;2985;48.142;16.344;2022-08-30T01:48:12;18.20;99.90
5919;DHT22;2985;48.142;16.344;2022-08-30T01:53:21;18.20;99.90
5919;DHT22;2985;48.142;16.344;2022-08-30T01:58:30;18.10;99.90
5919;DHT22;2985;48.142;16.344;2022-08-30T02:03:41;18.20;99.90
5919;DHT22;2985;48.142;16.344;2022-08-30T02:08:51;18.00;99.90
5919;DHT22;2985;48.142;16.344;2022-08-30T02:14:00;17.90;99.90
5919;DHT22;2985;48.142;16.344;2022-08-30T02:19:09;18.10;99.90
5919;DHT22;2985;48.142;16.344;2022-08-30T02:24:19;18.00;99.90
5919;DHT22;2985;48.142;16.344;2022-08-30T02:29:28;17.80;99.90
5919;DHT22;2985;48.142;16.344;2022-08-30T02:34:38;17.80;99.90
5919;DHT22;2985;48.142;16.344;2022-08-30T02:39:47;17.70;99.90
5919;DHT22;2985;48.142;16.344;2022-08-30T02:44:56;17.50;99.90
5919;DHT22;2985;48.142;16.344;2022-08-30T02:50:06;17.60;99.90
5919;DHT22;2985;48.142;16.344;2022-08-30T02:55:16;17.60;99.90
5919;DHT22;2985;48.142;16.344;2022-08-30T03:00:26;17.60;99.90
5919;DHT22;2985;48.142;16.344;2022-08-30T03:05:35;17.70;99.90
5919;DHT22;2985;48.142;16.344;2022-08-30T03:10:44;17.60;99.90
5919;DHT22;2985;48.142;16.344;2022-08-30T03:15:54;17.70;99.90
5919;DHT22;2985;48.142;16.344;2022-08-30T03:21:13;17.70;99.90
5919;DHT22;2985;48.142;16.344;2022-08-30T03:26:22;17.60;99.90
5919;DHT22;2985;48.142;16.344;2022-08-30T03:31:31;17.60;99.90
5919;DHT22;2985;48.142;16.344;2022-08-30T03:36:41;17.80;99.90
5919;DHT22;2985;48.142;16.344;2022-08-30T03:41:50;17.90;99.90
5919;DHT22;2985;48.142;16.344;2022-08-30T03:46:59;18.00;99.90
5919;DHT22;2985;48.142;16.344;2022-08-30T03:52:08;17.80;99.90
5919;DHT22;2985;48.142;16.344;2022-08-30T03:57:18;17.90;99.90
5919;DHT22;2985;48.142;16.344;2022-08-30T04:02:27;17.80;99.90
5919;DHT22;2985;48.142;16.344;2022-08-30T04:07:37;18.00;99.90
5919;DHT22;2985;48.142;16.344;2022-08-30T04:12:48;18.00;99.90
5919;DHT22;2985;48.142;16.344;2022-08-30T04:17:57;17.90;99.90
5919;DHT22;2985;48.142;16.344;2022-08-30T04:23:07;17.90;99.90
5919;DHT22;2985;48.142;16.344;2022-08-30T04:28:16;18.00;99.90
5919;DHT22;2985;48.142;16.344;2022-08-30T04:33:25;18.00;99.90
5919;DHT22;2985;48.142;16.344;2022-08-30T04:38:36;18.10;99.90
5919;DHT22;2985;48.142;16.344;2022-08-30T04:43:47;18.10;99.90
5919;DHT22;2985;48.142;16.344;2022-08-30T04:48:58;18.10;99.90
5919;DHT22;2985;48.142;16.344;2022-08-30T04:54:07;18.20;99.90
5919;DHT22;2985;48.142;16.344;2022-08-30T04:59:16;18.30;99.90
5919;DHT22;2985;48.142;16.344;2022-08-30T05:04:26;18.30;99.90
5919;DHT22;2985;48.142;16.344;2022-08-30T05:09:35;18.40;99.90
5919;DHT22;2985;48.142;16.344;2022-08-30T05:14:46;18.30;99.90
5919;DHT22;2985;48.142;16.344;2022-08-30T05:19:55;18.50;99.90
5919;DHT22;2985;48.142;16.344;2022-08-30T05:25:05;18.40;99.90
5919;DHT22;2985;48.142;16.344;2022-08-30T05:30:16;18.40;99.90
5919;DHT22;2985;48.142;16.344;2022-08-30T05:35:25;18.50;99.90
5919;DHT22;2985;48.142;16.344;2022-08-30T05:40:40;18.60;99.90
5919;DHT22;2985;48.142;16.344;2022-08-30T05:46:00;19.00;99.90
5919;DHT22;2985;48.142;16.344;2022-08-30T05:51:14;19.10;99.90
5919;DHT22;2985;48.142;16.344;2022-08-30T05:56:27;19.30;99.90
5919;DHT22;2985;48.142;16.344;2022-08-30T06:01:44;19.30;99.90
5919;DHT22;2985;48.142;16.344;2022-08-30T06:06:54;19.50;99.90
5919;DHT22;2985;48.142;16.344;2022-08-30T06:12:03;19.60;99.90
5919;DHT22;2985;48.142;16.344;2022-08-30T06:17:12;19.70;99.90
5919;DHT22;2985;48.142;16.344;2022-08-30T06:22:22;19.80;99.90
5919;DHT22;2985;48.142;16.344;2022-08-30T06:27:31;19.90;99.90
5919;DHT22;2985;48.142;16.344;2022-08-30T06:32:40;20.10;99.90
5919;DHT22;2985;48.142;16.344;2022-08-30T06:37:49;20.30;99.90
5919;DHT22;2985;48.142;16.344;2022-08-30T06:42:58;20.70;99.90
5919;DHT22;2985;48.142;16.344;2022-08-30T06:48:08;20.60;99.90
5919;DHT22;2985;48.142;16.344;2022-08-30T06:53:17;20.60;99.90
5919;DHT22;2985;48.142;16.344;2022-08-30T06:58:29;21.10;99.90
5919;DHT22;2985;48.142;16.344;2022-08-30T07:03:39;20.80;99.90
5919;DHT22;2985;48.142;16.344;2022-08-30T07:08:51;21.00;99.90
5919;DHT22;2985;48.142;16.344;2022-08-30T07:14:01;21.30;99.90
5919;DHT22;2985;48.142;16.344;2022-08-30T07:19:11;21.50;99.90
5919;DHT22;2985;48.142;16.344;2022-08-30T07:24:20;21.80;99.90
5919;DHT22;2985;48.142;16.344;2022-08-30T07:29:29;21.90;99.90
5919;DHT22;2985;48.142;16.344;2022-08-30T07:34:38;21.80;99.90
5919;DHT22;2985;48.142;16.344;2022-08-30T07:39:47;21.80;99.90
5919;DHT22;2985;48.142;16.344;2022-08-30T07:44:57;21.90;99.90
5919;DHT22;2985;48.142;16.344;2022-08-30T07:50:06;22.50;99.90
5919;DHT22;2985;48.142;16.344;2022-08-30T07:55:16;22.70;99.90
5919;DHT22;2985;48.142;16.344;2022-08-30T08:00:26;22.90;99.90
5919;DHT22;2985;48.142;16.344;2022-08-30T08:05:40;23.40;99.90
5919;DHT22;2985;48.142;16.344;2022-08-30T08:10:50;23.50;99.90
5919;DHT22;2985;48.142;16.344;2022-08-30T08:16:00;23.60;99.90
5919;DHT22;2985;48.142;16.344;2022-08-30T08:21:09;23.90;99.90
5919;DHT22;2985;48.142;16.344;2022-08-30T08:26:20;24.00;99.90
5919;DHT22;2985;48.142;16.344;2022-08-30T08:31:30;24.00;99.90
5919;DHT22;2985;48.142;16.344;2022-08-30T08:36:39;23.90;99.90
5919;DHT22;2985;48.142;16.344;2022-08-30T08:41:54;24.30;98.50
5919;DHT22;2985;48.142;16.344;2022-08-30T08:47:12;24.30;97.40
5919;DHT22;2985;48.142;16.344;2022-08-30T09:03:36;24.60;95.70
5919;DHT22;2985;48.142;16.344;2022-08-30T09:08:45;24.40;96.00
5919;DHT22;2985;48.142;16.344;2022-08-30T09:13:54;24.70;94.70
5919;DHT22;2985;48.142;16.344;2022-08-30T09:19:04;24.80;94.10
5919;DHT22;2985;48.142;16.344;2022-08-30T09:24:14;24.90;94.10
5919;DHT22;2985;48.142;16.344;2022-08-30T09:29:23;24.80;93.80
5919;DHT22;2985;48.142;16.344;2022-08-30T09:34:32;24.90;93.40
5919;DHT22;2985;48.142;16.344;2022-08-30T09:39:41;25.10;92.50
5919;DHT22;2985;48.142;16.344;2022-08-30T09:44:54;25.10;91.20
5919;DHT22;2985;48.142;16.344;2022-08-30T09:50:19;25.00;91.70
5919;DHT22;2985;48.142;16.344;2022-08-30T10:01:07;25.20;90.10
5919;DHT22;2985;48.142;16.344;2022-08-30T10:06:24;25.40;91.00
5919;DHT22;2985;48.142;16.344;2022-08-30T10:17:05;25.70;90.20
5919;DHT22;2985;48.142;16.344;2022-08-30T10:33:27;25.50;88.70
5919;DHT22;2985;48.142;16.344;2022-08-30T10:38:40;25.60;88.20
5919;DHT22;2985;48.142;16.344;2022-08-30T10:44:17;25.80;88.50
5919;DHT22;2985;48.142;16.344;2022-08-30T10:49:37;25.80;87.60
5919;DHT22;2985;48.142;16.344;2022-08-30T11:00:36;26.00;86.60
5919;DHT22;2985;48.142;16.344;2022-08-30T11:17:05;25.80;84.80
5919;DHT22;2985;48.142;16.344;2022-08-30T11:22:33;25.80;85.60
5919;DHT22;2985;48.142;16.344;2022-08-30T11:27:51;26.20;85.50
5919;DHT22;2985;48.142;16.344;2022-08-30T12:04:58;26.80;80.90
5919;DHT22;2985;48.142;16.344;2022-08-30T12:10:21;27.00;81.50
5919;DHT22;2985;48.142;16.344;2022-08-30T12:15:51;26.90;80.00
5919;DHT22;2985;48.142;16.344;2022-08-30T12:32:00;27.10;79.00
5919;DHT22;2985;48.142;16.344;2022-08-30T12:42:39;27.40;78.40
5919;DHT22;2985;48.142;16.344;2022-08-30T12:53:12;28.10;76.30
5919;DHT22;2985;48.142;16.344;2022-08-30T12:58:51;28.00;76.70
5919;DHT22;2985;48.142;16.344;2022-08-30T13:04:20;28.40;75.40
5919;DHT22;2985;48.142;16.344;2022-08-30T13:14:43;28.00;76.90
5919;DHT22;2985;48.142;16.344;2022-08-30T13:20:00;28.60;76.00
5919;DHT22;2985;48.142;16.344;2022-08-30T13:25:10;28.50;75.00
5919;DHT22;2985;48.142;16.344;2022-08-30T13:30:19;28.70;74.30
5919;DHT22;2985;48.142;16.344;2022-08-30T13:35:29;29.00;72.50
5919;DHT22;2985;48.142;16.344;2022-08-30T13:40:39;29.00;71.20
5919;DHT22;2985;48.142;16.344;2022-08-30T13:45:48;29.00;72.90
5919;DHT22;2985;48.142;16.344;2022-08-30T13:50:57;29.10;71.50
5919;DHT22;2985;48.142;16.344;2022-08-30T13:56:06;29.30;72.00
5919;DHT22;2985;48.142;16.344;2022-08-30T14:01:16;29.20;71.20
5919;DHT22;2985;48.142;16.344;2022-08-30T14:06:26;28.90;69.50
5919;DHT22;2985;48.142;16.344;2022-08-30T14:11:35;28.90;69.90
5919;DHT22;2985;48.142;16.344;2022-08-30T14:16:45;29.00;70.60
5919;DHT22;2985;48.142;16.344;2022-08-30T14:21:55;28.80;69.10
5919;DHT22;2985;48.142;16.344;2022-08-30T14:27:05;28.80;68.80
5919;DHT22;2985;48.142;16.344;2022-08-30T14:32:13;28.90;69.10
5919;DHT22;2985;48.142;16.344;2022-08-30T14:37:23;28.90;68.50
5919;DHT22;2985;48.142;16.344;2022-08-30T14:42:32;28.30;69.30
5919;DHT22;2985;48.142;16.344;2022-08-30T14:47:41;28.70;69.30
5919;DHT22;2985;48.142;16.344;2022-08-30T14:52:50;28.80;69.40
5919;DHT22;2985;48.142;16.344;2022-08-30T14:58:00;29.00;68.90
5919;DHT22;2985;48.142;16.344;2022-08-30T15:03:09;28.80;69.80
5919;DHT22;2985;48.142;16.344;2022-08-30T15:08:20;28.50;69.60
5919;DHT22;2985;48.142;16.344;2022-08-30T15:13:29;28.80;69.30
5919;DHT22;2985;48.142;16.344;2022-08-30T15:18:39;28.10;67.50
5919;DHT22;2985;48.142;16.344;2022-08-30T15:23:48;28.60;68.90
5919;DHT22;2985;48.142;16.344;2022-08-30T15:28:58;28.90;68.10
5919;DHT22;2985;48.142;16.344;2022-08-30T15:34:09;28.90;67.80
5919;DHT22;2985;48.142;16.344;2022-08-30T15:39:18;29.10;69.00
5919;DHT22;2985;48.142;16.344;2022-08-30T15:44:31;29.40;68.70
5919;DHT22;2985;48.142;16.344;2022-08-30T15:49:40;29.50;68.40
5919;DHT22;2985;48.142;16.344;2022-08-30T15:54:50;29.60;68.40
5919;DHT22;2985;48.142;16.344;2022-08-30T15:59:59;29.30;67.90
5919;DHT22;2985;48.142;16.344;2022-08-30T16:05:09;29.00;67.60
5919;DHT22;2985;48.142;16.344;2022-08-30T16:10:18;28.50;68.70
5919;DHT22;2985;48.142;16.344;2022-08-30T16:15:27;28.00;68.20
5919;DHT22;2985;48.142;16.344;2022-08-30T16:20:41;27.40;68.70
5919;DHT22;2985;48.142;16.344;2022-08-30T16:25:51;27.10;69.00
5919;DHT22;2985;48.142;16.344;2022-08-30T16:31:01;26.80;69.40
5919;DHT22;2985;48.142;16.344;2022-08-30T16:36:11;26.60;69.40
5919;DHT22;2985;48.142;16.344;2022-08-30T16:41:22;26.50;69.80
5919;DHT22;2985;48.142;16.344;2022-08-30T16:46:32;26.30;70.20
5919;DHT22;2985;48.142;16.344;2022-08-30T16:51:41;26.20;70.60
5919;DHT22;2985;48.142;16.344;2022-08-30T16:56:51;25.90;71.30
5919;DHT22;2985;48.142;16.344;2022-08-30T17:02:00;25.90;71.70
5919;DHT22;2985;48.142;16.344;2022-08-30T17:07:09;25.70;72.10
5919;DHT22;2985;48.142;16.344;2022-08-30T17:12:19;25.60;72.40
5919;DHT22;2985;48.142;16.344;2022-08-30T17:17:28;25.40;72.70
5919;DHT22;2985;48.142;16.344;2022-08-30T17:22:38;25.20;73.10
5919;DHT22;2985;48.142;16.344;2022-08-30T17:27:48;25.10;73.30
5919;DHT22;2985;48.142;16.344;2022-08-30T17:32:57;24.90;73.80
5919;DHT22;2985;48.142;16.344;2022-08-30T17:38:06;24.70;74.60
5919;DHT22;2985;48.142;16.344;2022-08-30T17:43:15;24.60;75.50
5919;DHT22;2985;48.142;16.344;2022-08-30T17:48:24;24.50;75.40
5919;DHT22;2985;48.142;16.344;2022-08-30T17:53:34;24.40;75.60
5919;DHT22;2985;48.142;16.344;2022-08-30T17:58:43;24.30;76.20
5919;DHT22;2985;48.142;16.344;2022-08-30T18:03:54;24.20;76.60
5919;DHT22;2985;48.142;16.344;2022-08-30T18:09:05;24.10;76.90
5919;DHT22;2985;48.142;16.344;2022-08-30T18:14:16;24.00;77.50
5919;DHT22;2985;48.142;16.344;2022-08-30T18:19:27;23.90;77.60
5919;DHT22;2985;48.142;16.344;2022-08-30T18:24:36;23.80;78.20
5919;DHT22;2985;48.142;16.344;2022-08-30T18:29:46;23.70;78.60
5919;DHT22;2985;48.142;16.344;2022-08-30T18:34:55;23.60;79.30
5919;DHT22;2985;48.142;16.344;2022-08-30T18:40:05;23.50;79.40
5919;DHT22;2985;48.142;16.344;2022-08-30T18:45:15;23.50;79.90
5919;DHT22;2985;48.142;16.344;2022-08-30T18:50:24;23.50;80.90
5919;DHT22;2985;48.142;16.344;2022-08-30T19:00:44;23.20;80.90
5919;DHT22;2985;48.142;16.344;2022-08-30T19:05:53;23.10;82.10
5919;DHT22;2985;48.142;16.344;2022-08-30T19:11:02;23.00;82.10
5919;DHT22;2985;48.142;16.344;2022-08-30T19:16:12;22.90;83.00
5919;DHT22;2985;48.142;16.344;2022-08-30T19:21:21;22.90;83.00
5919;DHT22;2985;48.142;16.344;2022-08-30T19:26:34;22.80;83.30
5919;DHT22;2985;48.142;16.344;2022-08-30T19:31:43;22.80;83.80
5919;DHT22;2985;48.142;16.344;2022-08-30T19:36:52;22.70;84.30
5919;DHT22;2985;48.142;16.344;2022-08-30T19:42:01;22.70;84.90
5919;DHT22;2985;48.142;16.344;2022-08-30T19:47:11;22.70;85.50
5919;DHT22;2985;48.142;16.344;2022-08-30T19:52:21;22.60;86.20
5919;DHT22;2985;48.142;16.344;2022-08-30T19:57:30;22.60;86.60
5919;DHT22;2985;48.142;16.344;2022-08-30T20:02:39;22.60;86.90
5919;DHT22;2985;48.142;16.344;2022-08-30T20:07:49;22.30;88.60
5919;DHT22;2985;48.142;16.344;2022-08-30T20:12:58;22.20;89.50
5919;DHT22;2985;48.142;16.344;2022-08-30T20:18:08;22.20;90.00
5919;DHT22;2985;48.142;16.344;2022-08-30T20:23:18;22.10;90.00
5919;DHT22;2985;48.142;16.344;2022-08-30T20:28:28;22.00;90.60
5919;DHT22;2985;48.142;16.344;2022-08-30T20:33:38;22.00;90.60
5919;DHT22;2985;48.142;16.344;2022-08-30T20:38:48;21.80;91.30
5919;DHT22;2985;48.142;16.344;2022-08-30T20:43:58;21.50;92.40
5919;DHT22;2985;48.142;16.344;2022-08-30T20:49:10;21.60;92.20
5919;DHT22;2985;48.142;16.344;2022-08-30T20:54:20;21.40;93.10
5919;DHT22;2985;48.142;16.344;2022-08-30T20:59:30;21.30;94.20
5919;DHT22;2985;48.142;16.344;2022-08-30T21:04:39;21.00;95.10
5919;DHT22;2985;48.142;16.344;2022-08-30T21:09:48;21.10;94.80
5919;DHT22;2985;48.142;16.344;2022-08-30T21:14:58;20.80;96.70
5919;DHT22;2985;48.142;16.344;2022-08-30T21:20:08;20.50;97.30
5919;DHT22;2985;48.142;16.344;2022-08-30T21:25:18;20.30;98.90
5919;DHT22;2985;48.142;16.344;2022-08-30T21:30:27;20.20;99.00
5919;DHT22;2985;48.142;16.344;2022-08-30T21:35:37;20.20;98.40
5919;DHT22;2985;48.142;16.344;2022-08-30T21:41:05;20.20;98.60
5919;DHT22;2985;48.142;16.344;2022-08-30T21:46:15;20.20;99.90
5919;DHT22;2985;48.142;16.344;2022-08-30T21:51:24;20.00;99.90
5919;DHT22;2985;48.142;16.344;2022-08-30T21:56:34;20.00;99.90
5919;DHT22;2985;48.142;16.344;2022-08-30T22:01:44;19.80;99.90
5919;DHT22;2985;48.142;16.344;2022-08-30T22:06:53;19.70;99.90
5919;DHT22;2985;48.142;16.344;2022-08-30T22:12:04;19.50;99.90
5919;DHT22;2985;48.142;16.344;2022-08-30T22:17:14;19.30;99.90
5919;DHT22;2985;48.142;16.344;2022-08-30T22:22:23;19.20;99.90
5919;DHT22;2985;48.142;16.344;2022-08-30T22:27:33;19.30;99.90
5919;DHT22;2985;48.142;16.344;2022-08-30T22:32:42;19.40;99.90
5919;DHT22;2985;48.142;16.344;2022-08-30T22:37:51;19.10;99.90
5919;DHT22;2985;48.142;16.344;2022-08-30T22:43:01;18.90;99.90
5919;DHT22;2985;48.142;16.344;2022-08-30T22:48:11;19.00;99.90
5919;DHT22;2985;48.142;16.344;2022-08-30T22:53:21;19.00;99.90
5919;DHT22;2985;48.142;16.344;2022-08-30T22:58:30;18.90;99.90
5919;DHT22;2985;48.142;16.344;2022-08-30T23:03:39;18.90;99.90
5919;DHT22;2985;48.142;16.344;2022-08-30T23:08:48;19.10;99.90
5919;DHT22;2985;48.142;16.344;2022-08-30T23:13:58;19.20;99.90
5919;DHT22;2985;48.142;16.344;2022-08-30T23:19:07;19.10;99.90
5919;DHT22;2985;48.142;16.344;2022-08-30T23:24:17;18.80;99.90
5919;DHT22;2985;48.142;16.344;2022-08-30T23:29:45;18.60;99.90
5919;DHT22;2985;48.142;16.344;2022-08-30T23:35:13;18.50;99.90
5919;DHT22;2985;48.142;16.344;2022-08-30T23:40:41;18.60;99.90
5919;DHT22;2985;48.142;16.344;2022-08-30T23:46:09;18.70;99.90
5919;DHT22;2985;48.142;16.344;2022-08-30T23:51:37;18.60;99.90
5919;DHT22;2985;48.142;16.344;2022-08-30T23:57:06;18.60;99.90
